sensor_id;sensor_type;location;lat;lon;timestamp;temperature;humidity
55313;DHT22;46892;45.668;11.756;2023-03-30T00:00:05;9.70;75.50
55313;DHT22;46892;45.668;11.756;2023-03-30T00:02:44;9.70;75.40
55313;DHT22;46892;45.668;11.756;2023-03-30T00:05:10;9.70;74.70
55313;DHT22;46892;45.668;11.756;2023-03-30T00:07:36;9.80;74.50
55313;DHT22;46892;45.668;11.756;2023-03-30T00:10:14;9.80;74.40
55313;DHT22;46892;45.668;11.756;2023-03-30T00:12:44;9.80;74.40
55313;DHT22;46892;45.668;11.756;2023-03-30T00:15:13;9.80;74.50
55313;DHT22;46892;45.668;11.756;2023-03-30T00:17:39;9.80;74.30
55313;DHT22;46892;45.668;11.756;2023-03-30T00:20:06;9.70;74.10
55313;DHT22;46892;45.668;11.756;2023-03-30T00:22:43;9.80;73.60
55313;DHT22;46892;45.668;11.756;2023-03-30T00:25:12;9.80;73.20
55313;DHT22;46892;45.668;11.756;2023-03-30T00:27:39;9.80;73.40
55313;DHT22;46892;45.668;11.756;2023-03-30T00:30:07;9.80;73.20
55313;DHT22;46892;45.668;11.756;2023-03-30T00:32:33;9.80;73.20
55313;DHT22;46892;45.668;11.756;2023-03-30T00:35:00;9.70;73.70
55313;DHT22;46892;45.668;11.756;2023-03-30T00:37:26;9.50;73.90
55313;DHT22;46892;45.668;11.756;2023-03-30T00:39:52;9.50;74.20
55313;DHT22;46892;45.668;11.756;2023-03-30T00:42:19;9.40;74.10
55313;DHT22;46892;45.668;11.756;2023-03-30T00:47:27;9.50;74.20
55313;DHT22;46892;45.668;11.756;2023-03-30T00:49:53;9.40;74.10
55313;DHT22;46892;45.668;11.756;2023-03-30T00:52:19;9.40;74.20
55313;DHT22;46892;45.668;11.756;2023-03-30T00:54:50;9.40;74.50
55313;DHT22;46892;45.668;11.756;2023-03-30T00:57:19;9.50;74.60
55313;DHT22;46892;45.668;11.756;2023-03-30T00:59:47;9.40;75.00
55313;DHT22;46892;45.668;11.756;2023-03-30T01:02:14;9.30;74.90
55313;DHT22;46892;45.668;11.756;2023-03-30T01:04:40;9.30;75.00
55313;DHT22;46892;45.668;11.756;2023-03-30T01:07:06;9.30;74.40
55313;DHT22;46892;45.668;11.756;2023-03-30T01:09:40;9.30;74.40
55313;DHT22;46892;45.668;11.756;2023-03-30T01:12:07;9.30;74.30
55313;DHT22;46892;45.668;11.756;2023-03-30T01:14:33;9.40;74.70
55313;DHT22;46892;45.668;11.756;2023-03-30T01:17:03;9.40;74.90
55313;DHT22;46892;45.668;11.756;2023-03-30T01:48:49;9.30;75.20
55313;DHT22;46892;45.668;11.756;2023-03-30T01:51:25;9.30;75.40
55313;DHT22;46892;45.668;11.756;2023-03-30T01:53:59;9.30;75.80
55313;DHT22;46892;45.668;11.756;2023-03-30T01:56:37;9.30;75.50
55313;DHT22;46892;45.668;11.756;2023-03-30T01:59:28;9.30;75.40
55313;DHT22;46892;45.668;11.756;2023-03-30T02:01:57;9.40;75.40
55313;DHT22;46892;45.668;11.756;2023-03-30T02:04:29;9.30;75.50
55313;DHT22;46892;45.668;11.756;2023-03-30T02:06:59;9.30;75.50
55313;DHT22;46892;45.668;11.756;2023-03-30T02:09:27;9.30;75.40
55313;DHT22;46892;45.668;11.756;2023-03-30T02:11:54;9.30;75.30
55313;DHT22;46892;45.668;11.756;2023-03-30T02:14:27;9.30;75.40
55313;DHT22;46892;45.668;11.756;2023-03-30T02:17:06;9.30;75.60
55313;DHT22;46892;45.668;11.756;2023-03-30T02:19:32;9.30;75.80
55313;DHT22;46892;45.668;11.756;2023-03-30T02:21:59;9.40;75.50
55313;DHT22;46892;45.668;11.756;2023-03-30T02:24:27;9.50;75.20
55313;DHT22;46892;45.668;11.756;2023-03-30T02:26:58;9.40;75.20
55313;DHT22;46892;45.668;11.756;2023-03-30T02:29:24;9.50;74.90
55313;DHT22;46892;45.668;11.756;2023-03-30T02:31:52;9.60;74.50
55313;DHT22;46892;45.668;11.756;2023-03-30T02:50:25;9.30;75.30
55313;DHT22;46892;45.668;11.756;2023-03-30T02:52:58;9.20;75.30
55313;DHT22;46892;45.668;11.756;2023-03-30T02:55:33;9.20;75.30
55313;DHT22;46892;45.668;11.756;2023-03-30T02:58:15;9.20;75.40
55313;DHT22;46892;45.668;11.756;2023-03-30T03:00:51;9.20;75.50
55313;DHT22;46892;45.668;11.756;2023-03-30T03:03:31;9.20;75.50
55313;DHT22;46892;45.668;11.756;2023-03-30T03:05:59;9.20;75.50
55313;DHT22;46892;45.668;11.756;2023-03-30T03:08:30;9.20;75.60
55313;DHT22;46892;45.668;11.756;2023-03-30T03:10:58;9.20;75.70
55313;DHT22;46892;45.668;11.756;2023-03-30T03:13:24;9.20;75.70
55313;DHT22;46892;45.668;11.756;2023-03-30T03:15:50;9.20;76.00
55313;DHT22;46892;45.668;11.756;2023-03-30T03:18:20;9.20;76.40
55313;DHT22;46892;45.668;11.756;2023-03-30T03:20:46;9.30;76.10
55313;DHT22;46892;45.668;11.756;2023-03-30T03:23:11;9.30;75.70
55313;DHT22;46892;45.668;11.756;2023-03-30T03:25:37;9.30;75.60
55313;DHT22;46892;45.668;11.756;2023-03-30T03:28:03;9.20;75.50
55313;DHT22;46892;45.668;11.756;2023-03-30T03:30:29;9.20;75.70
55313;DHT22;46892;45.668;11.756;2023-03-30T03:32:55;9.20;75.50
55313;DHT22;46892;45.668;11.756;2023-03-30T03:35:21;9.20;75.60
55313;DHT22;46892;45.668;11.756;2023-03-30T03:37:47;9.20;75.70
55313;DHT22;46892;45.668;11.756;2023-03-30T03:40:12;9.20;75.80
55313;DHT22;46892;45.668;11.756;2023-03-30T03:42:39;9.10;75.80
55313;DHT22;46892;45.668;11.756;2023-03-30T03:45:05;9.10;75.90
55313;DHT22;46892;45.668;11.756;2023-03-30T03:47:32;9.10;75.90
55313;DHT22;46892;45.668;11.756;2023-03-30T03:49:59;9.10;75.80
55313;DHT22;46892;45.668;11.756;2023-03-30T03:52:28;9.10;75.80
55313;DHT22;46892;45.668;11.756;2023-03-30T03:54:54;9.20;75.80
55313;DHT22;46892;45.668;11.756;2023-03-30T03:57:20;9.10;76.00
55313;DHT22;46892;45.668;11.756;2023-03-30T03:59:48;9.20;76.10
55313;DHT22;46892;45.668;11.756;2023-03-30T04:02:14;9.20;76.20
55313;DHT22;46892;45.668;11.756;2023-03-30T04:04:39;9.20;76.10
55313;DHT22;46892;45.668;11.756;2023-03-30T04:07:05;9.20;75.90
55313;DHT22;46892;45.668;11.756;2023-03-30T04:09:31;9.20;75.90
55313;DHT22;46892;45.668;11.756;2023-03-30T04:11:56;9.20;75.80
55313;DHT22;46892;45.668;11.756;2023-03-30T04:14:22;9.20;75.90
55313;DHT22;46892;45.668;11.756;2023-03-30T04:16:47;9.30;75.90
55313;DHT22;46892;45.668;11.756;2023-03-30T04:19:15;9.40;75.20
55313;DHT22;46892;45.668;11.756;2023-03-30T04:21:41;9.30;75.20
55313;DHT22;46892;45.668;11.756;2023-03-30T04:24:12;9.20;75.50
55313;DHT22;46892;45.668;11.756;2023-03-30T04:26:38;9.10;75.70
55313;DHT22;46892;45.668;11.756;2023-03-30T04:29:06;9.00;75.90
55313;DHT22;46892;45.668;11.756;2023-03-30T04:31:33;9.00;76.00
55313;DHT22;46892;45.668;11.756;2023-03-30T04:33:59;9.10;75.70
55313;DHT22;46892;45.668;11.756;2023-03-30T04:36:27;9.10;75.70
55313;DHT22;46892;45.668;11.756;2023-03-30T04:38:54;9.10;75.80
55313;DHT22;46892;45.668;11.756;2023-03-30T04:41:30;9.10;75.70
55313;DHT22;46892;45.668;11.756;2023-03-30T04:44:03;9.20;75.50
55313;DHT22;46892;45.668;11.756;2023-03-30T04:46:30;9.30;75.40
55313;DHT22;46892;45.668;11.756;2023-03-30T04:48:55;9.50;75.40
55313;DHT22;46892;45.668;11.756;2023-03-30T04:51:21;9.60;75.30
55313;DHT22;46892;45.668;11.756;2023-03-30T04:53:47;9.60;75.40
55313;DHT22;46892;45.668;11.756;2023-03-30T04:56:13;9.50;75.60
55313;DHT22;46892;45.668;11.756;2023-03-30T04:58:38;9.50;75.40
55313;DHT22;46892;45.668;11.756;2023-03-30T05:01:04;9.60;75.70
55313;DHT22;46892;45.668;11.756;2023-03-30T05:03:30;9.50;76.00
55313;DHT22;46892;45.668;11.756;2023-03-30T05:05:56;9.40;75.10
55313;DHT22;46892;45.668;11.756;2023-03-30T05:08:22;9.50;74.70
55313;DHT22;46892;45.668;11.756;2023-03-30T05:10:48;9.50;74.60
55313;DHT22;46892;45.668;11.756;2023-03-30T05:13:14;9.50;74.80
55313;DHT22;46892;45.668;11.756;2023-03-30T05:15:39;9.50;74.60
55313;DHT22;46892;45.668;11.756;2023-03-30T05:18:06;9.50;74.50
55313;DHT22;46892;45.668;11.756;2023-03-30T05:20:32;9.50;74.70
55313;DHT22;46892;45.668;11.756;2023-03-30T05:22:58;9.60;74.90
55313;DHT22;46892;45.668;11.756;2023-03-30T05:25:23;9.50;74.80
55313;DHT22;46892;45.668;11.756;2023-03-30T05:27:49;9.50;75.50
55313;DHT22;46892;45.668;11.756;2023-03-30T05:30:15;9.50;75.80
55313;DHT22;46892;45.668;11.756;2023-03-30T05:32:40;9.40;75.40
55313;DHT22;46892;45.668;11.756;2023-03-30T05:35:06;9.50;75.50
55313;DHT22;46892;45.668;11.756;2023-03-30T05:37:32;9.50;75.80
55313;DHT22;46892;45.668;11.756;2023-03-30T05:39:58;9.50;75.90
55313;DHT22;46892;45.668;11.756;2023-03-30T05:42:24;9.50;76.10
55313;DHT22;46892;45.668;11.756;2023-03-30T05:44:50;9.60;76.00
55313;DHT22;46892;45.668;11.756;2023-03-30T05:47:15;9.70;76.20
55313;DHT22;46892;45.668;11.756;2023-03-30T05:49:42;9.80;76.30
55313;DHT22;46892;45.668;11.756;2023-03-30T05:52:08;9.80;76.00
55313;DHT22;46892;45.668;11.756;2023-03-30T05:54:33;9.80;76.20
55313;DHT22;46892;45.668;11.756;2023-03-30T05:56:59;9.80;78.10
55313;DHT22;46892;45.668;11.756;2023-03-30T05:59:25;9.70;77.80
55313;DHT22;46892;45.668;11.756;2023-03-30T06:01:51;9.80;78.40
55313;DHT22;46892;45.668;11.756;2023-03-30T06:04:17;9.80;77.70
55313;DHT22;46892;45.668;11.756;2023-03-30T06:06:43;9.80;77.80
55313;DHT22;46892;45.668;11.756;2023-03-30T06:09:09;10.00;76.50
55313;DHT22;46892;45.668;11.756;2023-03-30T06:11:35;10.00;76.00
55313;DHT22;46892;45.668;11.756;2023-03-30T06:14:01;10.00;75.80
55313;DHT22;46892;45.668;11.756;2023-03-30T06:16:26;10.00;76.10
55313;DHT22;46892;45.668;11.756;2023-03-30T06:18:53;10.10;76.00
55313;DHT22;46892;45.668;11.756;2023-03-30T06:21:19;10.10;75.40
55313;DHT22;46892;45.668;11.756;2023-03-30T06:23:45;10.20;75.10
55313;DHT22;46892;45.668;11.756;2023-03-30T06:26:11;10.20;75.20
55313;DHT22;46892;45.668;11.756;2023-03-30T06:28:37;10.30;75.20
55313;DHT22;46892;45.668;11.756;2023-03-30T06:31:07;10.30;74.30
55313;DHT22;46892;45.668;11.756;2023-03-30T06:33:33;10.40;74.20
55313;DHT22;46892;45.668;11.756;2023-03-30T06:36:00;10.50;73.40
55313;DHT22;46892;45.668;11.756;2023-03-30T06:38:26;10.70;72.60
55313;DHT22;46892;45.668;11.756;2023-03-30T06:40:52;10.60;72.80
55313;DHT22;46892;45.668;11.756;2023-03-30T06:43:20;10.70;73.40
55313;DHT22;46892;45.668;11.756;2023-03-30T06:45:54;10.70;73.50
55313;DHT22;46892;45.668;11.756;2023-03-30T06:48:21;10.70;73.60
55313;DHT22;46892;45.668;11.756;2023-03-30T06:50:52;10.70;72.10
55313;DHT22;46892;45.668;11.756;2023-03-30T06:53:18;10.70;72.50
55313;DHT22;46892;45.668;11.756;2023-03-30T06:55:49;10.70;72.60
55313;DHT22;46892;45.668;11.756;2023-03-30T06:58:15;10.70;72.60
55313;DHT22;46892;45.668;11.756;2023-03-30T07:00:40;10.80;72.70
55313;DHT22;46892;45.668;11.756;2023-03-30T07:03:06;10.90;72.70
55313;DHT22;46892;45.668;11.756;2023-03-30T07:05:32;10.90;73.40
55313;DHT22;46892;45.668;11.756;2023-03-30T07:07:58;10.90;73.20
55313;DHT22;46892;45.668;11.756;2023-03-30T07:10:24;11.00;73.00
55313;DHT22;46892;45.668;11.756;2023-03-30T07:12:50;11.00;72.30
55313;DHT22;46892;45.668;11.756;2023-03-30T07:15:16;11.10;73.20
55313;DHT22;46892;45.668;11.756;2023-03-30T07:17:42;11.20;72.40
55313;DHT22;46892;45.668;11.756;2023-03-30T07:20:08;11.20;73.10
55313;DHT22;46892;45.668;11.756;2023-03-30T07:22:35;11.20;72.70
55313;DHT22;46892;45.668;11.756;2023-03-30T07:25:01;11.30;72.50
55313;DHT22;46892;45.668;11.756;2023-03-30T07:27:27;11.30;72.00
55313;DHT22;46892;45.668;11.756;2023-03-30T07:29:53;11.30;70.60
55313;DHT22;46892;45.668;11.756;2023-03-30T07:32:20;11.40;71.10
55313;DHT22;46892;45.668;11.756;2023-03-30T07:34:46;11.40;71.40
55313;DHT22;46892;45.668;11.756;2023-03-30T07:37:15;11.40;71.20
55313;DHT22;46892;45.668;11.756;2023-03-30T07:39:40;11.50;70.10
55313;DHT22;46892;45.668;11.756;2023-03-30T07:42:06;11.50;70.20
55313;DHT22;46892;45.668;11.756;2023-03-30T07:44:32;11.50;71.10
55313;DHT22;46892;45.668;11.756;2023-03-30T07:46:58;11.50;71.10
55313;DHT22;46892;45.668;11.756;2023-03-30T07:49:24;11.50;71.10
55313;DHT22;46892;45.668;11.756;2023-03-30T07:51:51;11.50;71.00
55313;DHT22;46892;45.668;11.756;2023-03-30T07:54:17;11.60;71.00
55313;DHT22;46892;45.668;11.756;2023-03-30T07:56:43;11.60;70.20
55313;DHT22;46892;45.668;11.756;2023-03-30T07:59:09;11.70;70.00
55313;DHT22;46892;45.668;11.756;2023-03-30T08:01:35;11.70;70.00
55313;DHT22;46892;45.668;11.756;2023-03-30T08:04:01;11.70;70.10
55313;DHT22;46892;45.668;11.756;2023-03-30T08:06:27;11.70;69.80
55313;DHT22;46892;45.668;11.756;2023-03-30T08:08:53;11.70;70.20
55313;DHT22;46892;45.668;11.756;2023-03-30T08:11:20;11.70;69.80
55313;DHT22;46892;45.668;11.756;2023-03-30T08:13:46;11.80;69.90
55313;DHT22;46892;45.668;11.756;2023-03-30T08:16:13;11.80;70.70
55313;DHT22;46892;45.668;11.756;2023-03-30T08:18:39;11.90;70.60
55313;DHT22;46892;45.668;11.756;2023-03-30T08:21:07;11.90;70.10
55313;DHT22;46892;45.668;11.756;2023-03-30T08:23:33;12.00;69.40
55313;DHT22;46892;45.668;11.756;2023-03-30T08:25:59;12.00;68.90
55313;DHT22;46892;45.668;11.756;2023-03-30T08:28:25;12.00;69.20
55313;DHT22;46892;45.668;11.756;2023-03-30T08:30:51;12.00;68.90
55313;DHT22;46892;45.668;11.756;2023-03-30T08:33:17;12.00;69.20
55313;DHT22;46892;45.668;11.756;2023-03-30T08:35:46;12.10;68.80
55313;DHT22;46892;45.668;11.756;2023-03-30T08:38:12;12.20;69.10
55313;DHT22;46892;45.668;11.756;2023-03-30T08:40:43;12.20;68.80
55313;DHT22;46892;45.668;11.756;2023-03-30T08:45:51;12.20;68.10
55313;DHT22;46892;45.668;11.756;2023-03-30T08:48:24;12.10;68.60
55313;DHT22;46892;45.668;11.756;2023-03-30T08:50:57;12.20;68.00
55313;DHT22;46892;45.668;11.756;2023-03-30T08:53:24;12.10;68.30
55313;DHT22;46892;45.668;11.756;2023-03-30T08:56:03;12.10;68.70
55313;DHT22;46892;45.668;11.756;2023-03-30T09:03:44;12.20;68.10
55313;DHT22;46892;45.668;11.756;2023-03-30T09:06:21;12.20;68.80
55313;DHT22;46892;45.668;11.756;2023-03-30T09:08:50;12.30;69.60
55313;DHT22;46892;45.668;11.756;2023-03-30T09:11:32;12.40;69.00
55313;DHT22;46892;45.668;11.756;2023-03-30T09:14:01;12.50;68.40
55313;DHT22;46892;45.668;11.756;2023-03-30T09:16:52;12.40;68.30
55313;DHT22;46892;45.668;11.756;2023-03-30T09:19:29;12.50;68.70
55313;DHT22;46892;45.668;11.756;2023-03-30T09:21:58;12.60;68.90
55313;DHT22;46892;45.668;11.756;2023-03-30T09:24:27;12.60;69.80
55313;DHT22;46892;45.668;11.756;2023-03-30T09:27:08;12.60;68.40
55313;DHT22;46892;45.668;11.756;2023-03-30T09:29:41;12.70;67.70
55313;DHT22;46892;45.668;11.756;2023-03-30T09:32:23;12.80;68.70
55313;DHT22;46892;45.668;11.756;2023-03-30T09:34:58;12.80;68.60
55313;DHT22;46892;45.668;11.756;2023-03-30T09:37:25;12.80;68.60
55313;DHT22;46892;45.668;11.756;2023-03-30T09:39:52;12.70;67.10
55313;DHT22;46892;45.668;11.756;2023-03-30T09:42:36;12.70;66.90
55313;DHT22;46892;45.668;11.756;2023-03-30T09:45:21;12.70;68.50
55313;DHT22;46892;45.668;11.756;2023-03-30T09:47:49;12.70;66.50
55313;DHT22;46892;45.668;11.756;2023-03-30T09:50:21;12.80;67.50
55313;DHT22;46892;45.668;11.756;2023-03-30T09:53:47;12.80;67.60
55313;DHT22;46892;45.668;11.756;2023-03-30T09:56:09;12.80;67.00
55313;DHT22;46892;45.668;11.756;2023-03-30T09:58:35;12.90;67.00
55313;DHT22;46892;45.668;11.756;2023-03-30T10:01:11;12.90;67.70
55313;DHT22;46892;45.668;11.756;2023-03-30T10:03:38;12.90;67.70
55313;DHT22;46892;45.668;11.756;2023-03-30T10:17:30;12.90;67.70
55313;DHT22;46892;45.668;11.756;2023-03-30T10:20:28;13.00;67.80
55313;DHT22;46892;45.668;11.756;2023-03-30T10:23:00;13.10;68.80
55313;DHT22;46892;45.668;11.756;2023-03-30T10:25:28;13.20;67.30
55313;DHT22;46892;45.668;11.756;2023-03-30T10:27:59;13.20;67.90
55313;DHT22;46892;45.668;11.756;2023-03-30T10:30:26;13.20;66.50
55313;DHT22;46892;45.668;11.756;2023-03-30T10:32:55;13.20;66.90
55313;DHT22;46892;45.668;11.756;2023-03-30T10:35:34;13.10;67.10
55313;DHT22;46892;45.668;11.756;2023-03-30T10:38:03;13.10;66.90
55313;DHT22;46892;45.668;11.756;2023-03-30T10:40:33;13.00;67.20
55313;DHT22;46892;45.668;11.756;2023-03-30T10:43:02;13.00;68.40
55313;DHT22;46892;45.668;11.756;2023-03-30T10:45:56;13.00;68.60
55313;DHT22;46892;45.668;11.756;2023-03-30T10:51:55;13.00;67.90
55313;DHT22;46892;45.668;11.756;2023-03-30T10:57:23;13.20;68.60
55313;DHT22;46892;45.668;11.756;2023-03-30T11:02:45;13.20;66.90
55313;DHT22;46892;45.668;11.756;2023-03-30T11:05:31;13.20;67.30
55313;DHT22;46892;45.668;11.756;2023-03-30T11:10:37;13.30;68.20
55313;DHT22;46892;45.668;11.756;2023-03-30T11:13:50;13.30;68.60
55313;DHT22;46892;45.668;11.756;2023-03-30T11:18:52;13.30;66.20
55313;DHT22;46892;45.668;11.756;2023-03-30T11:24:22;13.30;66.40
55313;DHT22;46892;45.668;11.756;2023-03-30T11:29:52;13.40;67.10
55313;DHT22;46892;45.668;11.756;2023-03-30T11:37:58;13.50;66.10
55313;DHT22;46892;45.668;11.756;2023-03-30T11:41:21;13.40;67.50
55313;DHT22;46892;45.668;11.756;2023-03-30T11:43:30;13.40;67.40
55313;DHT22;46892;45.668;11.756;2023-03-30T11:46:08;13.40;68.40
55313;DHT22;46892;45.668;11.756;2023-03-30T12:05:24;13.30;70.10
55313;DHT22;46892;45.668;11.756;2023-03-30T12:10:47;13.30;68.60
55313;DHT22;46892;45.668;11.756;2023-03-30T12:13:17;13.30;68.70
55313;DHT22;46892;45.668;11.756;2023-03-30T12:18:38;13.30;68.40
55313;DHT22;46892;45.668;11.756;2023-03-30T12:21:31;13.30;70.20
55313;DHT22;46892;45.668;11.756;2023-03-30T12:24:15;13.30;68.90
55313;DHT22;46892;45.668;11.756;2023-03-30T12:26:43;13.30;69.20
55313;DHT22;46892;45.668;11.756;2023-03-30T12:29:12;13.30;68.90
55313;DHT22;46892;45.668;11.756;2023-03-30T12:34:18;13.50;69.60
55313;DHT22;46892;45.668;11.756;2023-03-30T12:36:48;13.50;68.90
55313;DHT22;46892;45.668;11.756;2023-03-30T12:39:22;13.50;67.70
55313;DHT22;46892;45.668;11.756;2023-03-30T12:42:15;13.50;68.80
55313;DHT22;46892;45.668;11.756;2023-03-30T12:44:41;13.50;67.60
55313;DHT22;46892;45.668;11.756;2023-03-30T13:04:33;13.70;67.50
55313;DHT22;46892;45.668;11.756;2023-03-30T13:07:04;13.70;67.90
55313;DHT22;46892;45.668;11.756;2023-03-30T13:09:34;13.70;68.80
55313;DHT22;46892;45.668;11.756;2023-03-30T13:14:26;13.80;69.00
55313;DHT22;46892;45.668;11.756;2023-03-30T13:24:45;13.50;67.90
55313;DHT22;46892;45.668;11.756;2023-03-30T13:30:12;13.60;68.20
55313;DHT22;46892;45.668;11.756;2023-03-30T13:46:23;13.70;67.80
55313;DHT22;46892;45.668;11.756;2023-03-30T13:51:37;13.60;68.00
55313;DHT22;46892;45.668;11.756;2023-03-30T13:54:12;13.60;69.20
55313;DHT22;46892;45.668;11.756;2023-03-30T13:56:41;13.60;70.70
55313;DHT22;46892;45.668;11.756;2023-03-30T13:59:21;13.70;69.20
55313;DHT22;46892;45.668;11.756;2023-03-30T14:01:56;13.70;69.40
55313;DHT22;46892;45.668;11.756;2023-03-30T14:04:28;13.80;69.20
55313;DHT22;46892;45.668;11.756;2023-03-30T14:06:54;13.80;69.80
55313;DHT22;46892;45.668;11.756;2023-03-30T14:09:26;13.80;69.10
55313;DHT22;46892;45.668;11.756;2023-03-30T14:12:03;13.90;69.40
55313;DHT22;46892;45.668;11.756;2023-03-30T14:17:00;13.80;69.70
55313;DHT22;46892;45.668;11.756;2023-03-30T14:19:32;13.80;69.60
55313;DHT22;46892;45.668;11.756;2023-03-30T14:22:25;13.80;71.20
55313;DHT22;46892;45.668;11.756;2023-03-30T14:24:57;13.70;69.50
55313;DHT22;46892;45.668;11.756;2023-03-30T14:27:23;13.70;70.40
55313;DHT22;46892;45.668;11.756;2023-03-30T14:29:51;13.60;70.70
55313;DHT22;46892;45.668;11.756;2023-03-30T14:32:19;13.60;71.70
55313;DHT22;46892;45.668;11.756;2023-03-30T14:34:50;13.70;71.80
55313;DHT22;46892;45.668;11.756;2023-03-30T14:37:17;13.70;71.50
55313;DHT22;46892;45.668;11.756;2023-03-30T14:39:52;13.60;72.00
55313;DHT22;46892;45.668;11.756;2023-03-30T14:42:21;13.60;71.50
55313;DHT22;46892;45.668;11.756;2023-03-30T14:44:50;13.50;71.70
55313;DHT22;46892;45.668;11.756;2023-03-30T14:47:24;13.40;71.80
55313;DHT22;46892;45.668;11.756;2023-03-30T14:49:56;13.50;71.60
55313;DHT22;46892;45.668;11.756;2023-03-30T14:52:28;13.50;71.40
55313;DHT22;46892;45.668;11.756;2023-03-30T14:54:55;13.50;72.20
55313;DHT22;46892;45.668;11.756;2023-03-30T14:57:23;13.50;73.80
55313;DHT22;46892;45.668;11.756;2023-03-30T14:59:58;13.40;72.30
55313;DHT22;46892;45.668;11.756;2023-03-30T15:02:29;13.40;72.30
55313;DHT22;46892;45.668;11.756;2023-03-30T15:04:56;13.40;72.50
55313;DHT22;46892;45.668;11.756;2023-03-30T15:07:24;13.40;72.80
55313;DHT22;46892;45.668;11.756;2023-03-30T15:09:55;13.40;73.00
55313;DHT22;46892;45.668;11.756;2023-03-30T15:12:31;13.30;73.50
55313;DHT22;46892;45.668;11.756;2023-03-30T15:15:00;13.40;73.90
55313;DHT22;46892;45.668;11.756;2023-03-30T15:17:28;13.50;74.00
55313;DHT22;46892;45.668;11.756;2023-03-30T15:19:55;13.50;73.10
55313;DHT22;46892;45.668;11.756;2023-03-30T15:24:59;13.50;72.60
55313;DHT22;46892;45.668;11.756;2023-03-30T15:27:26;13.50;72.30
55313;DHT22;46892;45.668;11.756;2023-03-30T15:29:54;13.60;72.70
55313;DHT22;46892;45.668;11.756;2023-03-30T15:32:25;13.60;71.30
55313;DHT22;46892;45.668;11.756;2023-03-30T15:35:24;13.70;71.10
55313;DHT22;46892;45.668;11.756;2023-03-30T15:40:37;13.60;70.60
55313;DHT22;46892;45.668;11.756;2023-03-30T15:43:23;13.50;71.40
55313;DHT22;46892;45.668;11.756;2023-03-30T15:45:54;13.40;71.50
55313;DHT22;46892;45.668;11.756;2023-03-30T15:48:24;13.40;71.40
55313;DHT22;46892;45.668;11.756;2023-03-30T15:53:52;13.50;71.60
55313;DHT22;46892;45.668;11.756;2023-03-30T15:56:29;13.50;71.70
55313;DHT22;46892;45.668;11.756;2023-03-30T15:58:57;13.50;71.90
55313;DHT22;46892;45.668;11.756;2023-03-30T16:01:27;13.60;72.00
55313;DHT22;46892;45.668;11.756;2023-03-30T16:04:04;13.60;71.50
55313;DHT22;46892;45.668;11.756;2023-03-30T16:06:30;13.60;71.10
55313;DHT22;46892;45.668;11.756;2023-03-30T16:08:55;13.60;70.80
55313;DHT22;46892;45.668;11.756;2023-03-30T16:11:21;13.70;71.00
55313;DHT22;46892;45.668;11.756;2023-03-30T16:13:47;13.90;71.20
55313;DHT22;46892;45.668;11.756;2023-03-30T16:16:14;14.00;69.60
55313;DHT22;46892;45.668;11.756;2023-03-30T16:18:42;13.90;69.80
55313;DHT22;46892;45.668;11.756;2023-03-30T16:21:08;13.80;70.90
55313;DHT22;46892;45.668;11.756;2023-03-30T16:23:35;13.80;71.00
55313;DHT22;46892;45.668;11.756;2023-03-30T16:26:02;13.70;71.50
55313;DHT22;46892;45.668;11.756;2023-03-30T16:28:27;13.80;71.70
55313;DHT22;46892;45.668;11.756;2023-03-30T16:30:57;13.80;71.80
55313;DHT22;46892;45.668;11.756;2023-03-30T16:33:24;13.70;71.60
55313;DHT22;46892;45.668;11.756;2023-03-30T16:35:50;13.70;72.00
55313;DHT22;46892;45.668;11.756;2023-03-30T16:38:16;13.60;71.50
55313;DHT22;46892;45.668;11.756;2023-03-30T16:40:44;13.60;72.10
55313;DHT22;46892;45.668;11.756;2023-03-30T16:43:10;13.60;72.80
55313;DHT22;46892;45.668;11.756;2023-03-30T16:45:36;13.60;73.00
55313;DHT22;46892;45.668;11.756;2023-03-30T16:48:03;13.70;73.40
55313;DHT22;46892;45.668;11.756;2023-03-30T16:50:41;13.60;73.30
55313;DHT22;46892;45.668;11.756;2023-03-30T16:53:09;13.60;73.50
55313;DHT22;46892;45.668;11.756;2023-03-30T16:55:35;13.40;73.70
55313;DHT22;46892;45.668;11.756;2023-03-30T16:58:01;13.30;74.40
55313;DHT22;46892;45.668;11.756;2023-03-30T17:00:29;13.20;74.80
55313;DHT22;46892;45.668;11.756;2023-03-30T17:02:56;13.20;74.90
55313;DHT22;46892;45.668;11.756;2023-03-30T17:05:22;13.20;74.70
55313;DHT22;46892;45.668;11.756;2023-03-30T17:07:48;13.20;74.90
55313;DHT22;46892;45.668;11.756;2023-03-30T17:10:27;13.10;75.20
55313;DHT22;46892;45.668;11.756;2023-03-30T17:12:54;13.00;75.30
55313;DHT22;46892;45.668;11.756;2023-03-30T17:15:21;12.90;75.40
55313;DHT22;46892;45.668;11.756;2023-03-30T17:17:47;12.90;75.50
55313;DHT22;46892;45.668;11.756;2023-03-30T17:20:18;12.90;75.60
55313;DHT22;46892;45.668;11.756;2023-03-30T17:22:44;12.80;75.80
55313;DHT22;46892;45.668;11.756;2023-03-30T17:25:09;12.80;75.90
55313;DHT22;46892;45.668;11.756;2023-03-30T17:27:35;12.70;76.00
55313;DHT22;46892;45.668;11.756;2023-03-30T17:30:04;12.60;76.00
55313;DHT22;46892;45.668;11.756;2023-03-30T17:32:38;12.50;76.10
55313;DHT22;46892;45.668;11.756;2023-03-30T17:35:05;12.40;76.20
55313;DHT22;46892;45.668;11.756;2023-03-30T17:37:30;12.30;76.30
55313;DHT22;46892;45.668;11.756;2023-03-30T17:39:56;12.30;76.40
55313;DHT22;46892;45.668;11.756;2023-03-30T17:42:22;12.20;76.60
55313;DHT22;46892;45.668;11.756;2023-03-30T17:44:48;12.10;76.80
55313;DHT22;46892;45.668;11.756;2023-03-30T17:47:13;12.00;76.90
55313;DHT22;46892;45.668;11.756;2023-03-30T17:49:40;11.80;77.20
55313;DHT22;46892;45.668;11.756;2023-03-30T17:52:05;11.80;77.30
55313;DHT22;46892;45.668;11.756;2023-03-30T17:54:31;11.80;77.50
55313;DHT22;46892;45.668;11.756;2023-03-30T17:56:57;11.70;77.60
55313;DHT22;46892;45.668;11.756;2023-03-30T17:59:23;11.70;77.90
55313;DHT22;46892;45.668;11.756;2023-03-30T18:01:48;11.70;78.00
55313;DHT22;46892;45.668;11.756;2023-03-30T18:04:14;11.70;78.00
55313;DHT22;46892;45.668;11.756;2023-03-30T18:06:40;11.70;77.90
55313;DHT22;46892;45.668;11.756;2023-03-30T18:09:14;11.70;77.80
55313;DHT22;46892;45.668;11.756;2023-03-30T18:11:40;11.70;77.80
55313;DHT22;46892;45.668;11.756;2023-03-30T18:14:07;11.70;77.70
55313;DHT22;46892;45.668;11.756;2023-03-30T18:16:36;11.60;77.80
55313;DHT22;46892;45.668;11.756;2023-03-30T18:19:03;11.60;77.90
55313;DHT22;46892;45.668;11.756;2023-03-30T18:21:29;11.60;77.90
55313;DHT22;46892;45.668;11.756;2023-03-30T18:23:54;11.60;78.00
55313;DHT22;46892;45.668;11.756;2023-03-30T18:26:21;11.70;78.40
55313;DHT22;46892;45.668;11.756;2023-03-30T18:28:46;11.70;78.40